createdAt,value
2022-11-01T00:02:04.036Z,9.29
2022-11-01T00:05:05.606Z,9.31
2022-11-01T00:08:06.984Z,9.34
2022-11-01T00:11:09.700Z,9.35
2022-11-01T00:14:14.528Z,9.41
2022-11-01T00:17:15.881Z,9.45
2022-11-01T00:20:17.458Z,9.42
2022-11-01T00:23:18.790Z,9.47
2022-11-01T00:26:20.852Z,9.47
2022-11-01T00:29:22.222Z,9.48
2022-11-01T00:32:23.628Z,9.50
2022-11-01T00:35:24.956Z,9.55
2022-11-01T00:38:26.355Z,9.63
2022-11-01T00:41:27.770Z,9.59
2022-11-01T00:44:29.160Z,9.65
2022-11-01T00:47:30.556Z,9.68
2022-11-01T00:50:31.901Z,9.69
2022-11-01T00:53:33.295Z,9.73
2022-11-01T00:56:34.674Z,9.69
2022-11-01T00:59:40.719Z,9.72
2022-11-01T01:02:42.664Z,9.75
2022-11-01T01:05:44.120Z,9.81
2022-11-01T01:08:45.529Z,9.84
2022-11-01T01:11:46.896Z,9.89
2022-11-01T01:14:48.279Z,9.90
2022-11-01T01:17:49.660Z,9.90
2022-11-01T01:20:51.021Z,9.91
2022-11-01T01:23:54.677Z,9.93
2022-11-01T01:26:56.067Z,9.93
2022-11-01T01:29:57.424Z,10.01
2022-11-01T01:32:58.891Z,10.07
2022-11-01T01:36:00.818Z,10.30
2022-11-01T01:39:02.156Z,10.38
2022-11-01T01:42:05.988Z,10.38
2022-11-01T01:45:20.425Z,10.43
2022-11-01T01:48:22.818Z,10.46
2022-11-01T01:51:24.714Z,10.53
2022-11-01T01:54:26.057Z,10.77
2022-11-01T01:57:27.398Z,10.90
2022-11-01T02:00:28.710Z,10.94
2022-11-01T02:03:31.113Z,11.08
2022-11-01T02:06:32.441Z,11.19
2022-11-01T02:09:33.754Z,11.23
2022-11-01T02:12:35.489Z,11.18
2022-11-01T02:15:46.396Z,11.15
2022-11-01T02:19:08.002Z,11.32
2022-11-01T02:22:12.146Z,11.35
2022-11-01T02:25:32.484Z,11.43
2022-11-01T02:28:55.423Z,11.42
2022-11-01T02:32:12.423Z,11.53
2022-11-01T02:35:19.749Z,11.50
2022-11-01T02:38:24.073Z,11.60
2022-11-01T02:41:26.522Z,11.65
2022-11-01T02:44:28.923Z,11.69
2022-11-01T02:47:30.848Z,11.63
2022-11-01T02:50:33.757Z,11.64
2022-11-01T02:53:35.172Z,11.65
2022-11-01T02:56:37.227Z,11.64
2022-11-01T02:59:42.508Z,11.78
2022-11-01T03:02:44.119Z,11.84
2022-11-01T03:05:53.139Z,11.92
2022-11-01T03:08:55.247Z,11.95
2022-11-01T03:12:01.125Z,12.08
2022-11-01T03:15:03.664Z,12.21
2022-11-01T03:18:06.232Z,12.25
2022-11-01T03:21:17.133Z,12.30
2022-11-01T03:24:24.655Z,12.43
2022-11-01T03:27:32.701Z,12.46
2022-11-01T03:30:34.050Z,12.48
2022-11-01T03:33:36.307Z,12.50
2022-11-01T03:36:42.974Z,12.73
2022-11-01T03:39:45.545Z,12.68
2022-11-01T03:42:47.654Z,12.65
2022-11-01T03:45:48.979Z,12.62
2022-11-01T03:48:50.373Z,12.57
2022-11-01T03:51:51.764Z,12.54
2022-11-01T03:54:53.129Z,12.54
2022-11-01T03:57:55.419Z,12.51
2022-11-01T04:00:56.782Z,12.40
2022-11-01T04:03:58.159Z,12.39
2022-11-01T04:06:59.525Z,12.32
2022-11-01T04:10:00.870Z,12.24
2022-11-01T04:13:02.443Z,12.21
2022-11-01T04:16:22.739Z,12.21
2022-11-01T04:19:42.883Z,12.16
2022-11-01T04:22:44.347Z,12.19
2022-11-01T04:25:46.913Z,12.20
2022-11-01T04:28:57.750Z,12.17
2022-11-01T04:31:59.350Z,12.20
2022-11-01T04:35:00.742Z,12.18
2022-11-01T04:38:02.327Z,12.16
2022-11-01T04:41:03.773Z,12.21
2022-11-01T04:44:05.428Z,12.23
2022-11-01T04:47:06.786Z,12.23
2022-11-01T04:50:08.287Z,12.20
2022-11-01T04:53:09.873Z,12.20
2022-11-01T04:56:11.730Z,12.22
2022-11-01T04:59:13.275Z,12.23
2022-11-01T05:02:14.705Z,12.24
2022-11-01T05:05:16.292Z,12.23
2022-11-01T05:08:17.651Z,12.23
2022-11-01T05:11:21.772Z,12.25
2022-11-01T05:14:23.156Z,12.41
2022-11-01T05:17:24.566Z,12.45
2022-11-01T05:20:25.913Z,12.65
2022-11-01T05:23:27.257Z,12.65
2022-11-01T05:26:28.695Z,12.63
2022-11-01T05:29:33.544Z,12.62
2022-11-01T05:32:38.081Z,12.55
2022-11-01T05:35:39.551Z,12.84
2022-11-01T05:38:40.923Z,12.74
2022-11-01T05:41:42.299Z,12.71
2022-11-01T05:44:43.612Z,12.70
2022-11-01T05:47:45.003Z,12.80
2022-11-01T05:50:47.033Z,12.73
2022-11-01T05:53:49.236Z,12.73
2022-11-01T05:56:50.632Z,12.73
2022-11-01T05:59:51.985Z,12.77
2022-11-01T06:02:53.380Z,12.82
2022-11-01T06:05:54.739Z,12.81
2022-11-01T06:08:57.318Z,12.76
2022-11-01T06:11:58.681Z,12.69
2022-11-01T06:15:00.064Z,12.70
2022-11-01T06:18:01.726Z,12.69
2022-11-01T06:21:03.491Z,12.72
2022-11-01T06:24:04.979Z,12.75
2022-11-01T06:27:09.929Z,12.81
2022-11-01T06:30:13.912Z,12.83
2022-11-01T06:33:15.243Z,12.81
2022-11-01T06:36:16.602Z,12.83
2022-11-01T06:39:18.606Z,12.85
2022-11-01T06:42:19.990Z,12.88
2022-11-01T06:45:21.344Z,12.98
2022-11-01T06:48:22.728Z,13.14
2022-11-01T06:51:24.075Z,13.10
2022-11-01T06:54:25.788Z,12.96
2022-11-01T06:57:27.158Z,12.92
2022-11-01T07:00:28.837Z,12.92
2022-11-01T07:03:30.299Z,12.91
2022-11-01T07:06:31.744Z,12.89
2022-11-01T07:09:34.432Z,12.91
2022-11-01T07:12:35.943Z,12.90
2022-11-01T07:15:37.336Z,12.88
2022-11-01T07:18:38.696Z,12.94
2022-11-01T07:21:40.116Z,13.06
2022-11-01T07:24:41.506Z,13.07
2022-11-01T07:27:42.848Z,13.04
2022-11-01T07:30:46.956Z,12.95
2022-11-01T07:33:48.328Z,12.87
2022-11-01T07:36:51.979Z,12.79
2022-11-01T07:39:53.313Z,12.74
2022-11-01T07:42:56.016Z,12.81
2022-11-01T07:46:07.365Z,12.83
2022-11-01T07:49:08.864Z,12.86
2022-11-01T07:52:10.199Z,12.79
2022-11-01T07:55:11.537Z,12.74
2022-11-01T07:58:13.060Z,12.73
2022-11-01T08:01:14.701Z,12.61
2022-11-01T08:04:16.331Z,12.65
2022-11-01T08:07:17.919Z,12.64
2022-11-01T08:10:19.270Z,12.71
2022-11-01T08:13:23.869Z,12.75
2022-11-01T08:16:25.188Z,12.74
2022-11-01T08:19:26.539Z,12.82
2022-11-01T08:22:27.959Z,12.85
2022-11-01T08:25:29.379Z,12.89
2022-11-01T08:28:30.792Z,12.75
2022-11-01T08:31:32.128Z,12.75
2022-11-01T08:34:33.586Z,12.80
2022-11-01T08:37:34.931Z,12.79
2022-11-01T08:40:36.287Z,12.95
2022-11-01T08:43:40.522Z,13.08
2022-11-01T08:46:43.713Z,13.19
2022-11-01T08:49:45.714Z,13.37
2022-11-01T08:52:47.098Z,13.79
2022-11-01T08:58:54.970Z,15.24
2022-11-01T09:01:56.419Z,16.56
2022-11-01T09:04:57.931Z,17.43
2022-11-01T09:07:59.546Z,18.27
2022-11-01T09:11:01.012Z,17.24
2022-11-01T09:14:02.445Z,18.05
2022-11-01T09:17:03.782Z,16.97
2022-11-01T09:20:05.383Z,16.94
2022-11-01T09:23:06.840Z,16.46
2022-11-01T09:26:08.775Z,15.75
2022-11-01T09:29:10.144Z,15.31
2022-11-01T09:32:12.054Z,15.20
2022-11-01T09:35:13.387Z,15.22
2022-11-01T09:38:14.715Z,15.06
2022-11-01T09:41:15.998Z,15.13
2022-11-01T09:44:18.390Z,14.94
2022-11-01T09:47:21.004Z,14.94
2022-11-01T09:50:24.084Z,14.92
2022-11-01T09:53:25.780Z,14.86
2022-11-01T09:56:30.306Z,14.61
2022-11-01T09:59:41.281Z,14.62
2022-11-01T10:02:50.163Z,14.57
2022-11-01T10:05:54.803Z,14.62
2022-11-01T10:09:25.669Z,14.69
2022-11-01T10:12:32.873Z,14.73
2022-11-01T10:15:43.339Z,14.86
2022-11-01T10:18:56.926Z,14.68
2022-11-01T10:22:01.240Z,14.61
2022-11-01T10:25:04.653Z,14.63
2022-11-01T10:28:18.396Z,14.70
2022-11-01T10:31:21.715Z,14.67
2022-11-01T10:34:24.080Z,14.57
2022-11-01T10:37:34.983Z,14.52
2022-11-01T10:40:41.268Z,14.46
2022-11-01T10:43:44.079Z,14.38
2022-11-01T10:46:46.275Z,14.42
2022-11-01T10:50:26.256Z,14.35
2022-11-01T10:53:31.850Z,14.35
2022-11-01T10:56:41.817Z,14.33
2022-11-01T10:59:44.562Z,14.28
2022-11-01T11:02:50.744Z,14.35
2022-11-01T11:05:52.122Z,14.40
2022-11-01T11:08:54.150Z,14.37
2022-11-01T11:11:56.936Z,14.39
2022-11-01T11:14:59.875Z,14.57
2022-11-01T11:18:01.215Z,14.61
2022-11-01T11:21:04.707Z,14.75
2022-11-01T11:24:06.420Z,14.72
2022-11-01T11:27:11.783Z,15.15
2022-11-01T11:30:14.783Z,15.02
2022-11-01T11:33:17.024Z,15.24
2022-11-01T11:36:24.645Z,15.06
2022-11-01T11:39:26.591Z,15.00
2022-11-01T11:42:30.254Z,14.96
2022-11-01T11:45:31.609Z,15.03
2022-11-01T11:48:32.967Z,15.09
2022-11-01T11:51:35.538Z,15.08
2022-11-01T11:54:38.963Z,13.95
2022-11-01T11:57:40.294Z,13.40
2022-11-01T12:00:41.940Z,13.14
2022-11-01T12:03:46.371Z,13.11
2022-11-01T12:06:48.303Z,13.34
2022-11-01T12:09:49.673Z,13.43
2022-11-01T12:12:54.268Z,13.37
2022-11-01T12:16:15.959Z,13.35
2022-11-01T12:19:27.535Z,13.28
2022-11-01T12:22:29.704Z,13.29
2022-11-01T12:25:31.023Z,13.64
2022-11-01T12:28:45.713Z,13.80
2022-11-01T12:31:48.194Z,13.65
2022-11-01T12:34:49.932Z,13.48
2022-11-01T12:38:09.728Z,13.28
2022-11-01T12:41:31.115Z,13.14
2022-11-01T12:44:39.274Z,13.17
2022-11-01T12:47:41.862Z,13.06
2022-11-01T12:50:47.883Z,13.00
2022-11-01T12:53:54.626Z,12.93
2022-11-01T12:56:56.752Z,12.85
2022-11-01T12:59:58.107Z,12.90
2022-11-01T13:03:18.477Z,13.04
2022-11-01T13:06:35.055Z,13.18
2022-11-01T13:09:39.332Z,13.32
2022-11-01T13:12:47.111Z,13.48
2022-11-01T13:16:09.311Z,13.47
2022-11-01T13:19:12.997Z,13.18
2022-11-01T13:22:17.349Z,13.09
2022-11-01T13:25:42.004Z,13.03
2022-11-01T13:28:48.601Z,13.11
2022-11-01T13:32:00.902Z,13.24
2022-11-01T13:35:21.108Z,13.32
2022-11-01T13:38:41.986Z,13.34
2022-11-01T13:41:45.900Z,13.27
2022-11-01T13:45:00.046Z,13.32
2022-11-01T13:48:10.474Z,13.41
2022-11-01T13:51:11.775Z,13.53
2022-11-01T13:54:13.068Z,14.11
2022-11-01T13:57:15.088Z,14.31
2022-11-01T14:00:35.225Z,13.77
2022-11-01T14:03:36.900Z,13.76
2022-11-01T14:06:38.749Z,14.03
2022-11-01T14:09:43.992Z,14.10
2022-11-01T14:12:57.305Z,14.47
2022-11-01T14:15:59.743Z,14.45
2022-11-01T14:19:03.948Z,14.35
2022-11-01T14:22:11.470Z,14.36
2022-11-01T14:25:12.821Z,14.33
2022-11-01T14:28:17.252Z,14.31
2022-11-01T14:31:19.111Z,13.92
2022-11-01T14:34:24.864Z,13.87
2022-11-01T14:37:26.259Z,13.62
2022-11-01T14:40:34.968Z,13.59
2022-11-01T14:43:43.614Z,13.49
2022-11-01T14:46:46.726Z,13.56
2022-11-01T14:49:48.951Z,13.32
2022-11-01T14:52:58.683Z,13.48
2022-11-01T14:56:06.266Z,13.23
2022-11-01T14:59:11.664Z,13.22
2022-11-01T15:02:13.177Z,13.11
2022-11-01T15:05:15.891Z,13.03
2022-11-01T15:08:29.075Z,13.00
2022-11-01T15:11:30.598Z,12.97
2022-11-01T15:14:35.754Z,12.85
2022-11-01T15:17:37.136Z,12.73
2022-11-01T15:20:38.937Z,12.61
2022-11-01T15:23:40.409Z,12.60
2022-11-01T15:26:41.755Z,12.53
2022-11-01T15:29:43.191Z,12.53
2022-11-01T15:32:44.526Z,12.49
2022-11-01T15:35:55.519Z,12.40
2022-11-01T15:38:57.758Z,12.39
2022-11-01T15:41:59.131Z,12.29
2022-11-01T15:45:17.912Z,12.21
2022-11-01T15:48:20.470Z,12.11
2022-11-01T15:51:22.983Z,12.03
2022-11-01T15:54:53.538Z,11.97
2022-11-01T15:58:01.222Z,11.87
2022-11-01T16:01:03.783Z,11.79
2022-11-01T16:04:06.525Z,11.71
2022-11-01T16:07:08.163Z,11.65
2022-11-01T16:10:22.953Z,11.60
2022-11-01T16:13:24.745Z,11.53
2022-11-01T16:16:26.120Z,11.43
2022-11-01T16:19:42.519Z,11.36
2022-11-01T16:22:45.961Z,11.34
2022-11-01T16:25:48.260Z,11.28
2022-11-01T16:28:50.578Z,11.20
2022-11-01T16:32:09.265Z,11.12
2022-11-01T16:35:28.877Z,11.02
2022-11-01T16:38:33.273Z,10.97
2022-11-01T16:41:38.044Z,10.91
2022-11-01T16:44:42.535Z,10.87
2022-11-01T16:47:43.937Z,10.81
2022-11-01T16:50:45.296Z,10.77
2022-11-01T16:53:46.826Z,10.76
2022-11-01T16:56:49.049Z,10.67
2022-11-01T16:59:51.066Z,10.59
2022-11-01T17:02:52.432Z,10.59
2022-11-01T17:05:56.208Z,10.50
2022-11-01T17:08:57.807Z,10.43
2022-11-01T17:11:59.152Z,10.37
2022-11-01T17:15:00.484Z,10.28
2022-11-01T17:18:03.359Z,10.21
2022-11-01T17:21:05.696Z,10.15
2022-11-01T17:24:07.065Z,10.13
2022-11-01T17:27:08.880Z,10.11
2022-11-01T17:30:10.437Z,10.04
2022-11-01T17:33:11.946Z,9.90
2022-11-01T17:36:16.376Z,9.88
2022-11-01T17:39:17.794Z,9.89
2022-11-01T17:42:19.190Z,9.81
2022-11-01T17:45:20.609Z,9.78
2022-11-01T17:48:22.075Z,9.71
2022-11-01T17:51:23.419Z,9.70
2022-11-01T17:57:31.040Z,9.55
2022-11-01T18:00:32.423Z,9.43
2022-11-01T18:03:33.849Z,9.37
2022-11-01T18:06:35.262Z,9.36
2022-11-01T18:09:37.322Z,9.27
2022-11-01T18:12:39.616Z,9.28
2022-11-01T18:15:44.069Z,9.24
2022-11-01T18:18:54.843Z,9.06
2022-11-01T18:21:59.364Z,9.07
2022-11-01T18:25:10.632Z,8.96
2022-11-01T18:28:15.865Z,8.92
2022-11-01T18:31:24.344Z,8.89
2022-11-01T18:34:38.173Z,8.80
2022-11-01T18:37:44.647Z,8.69
2022-11-01T18:40:46.194Z,8.69
2022-11-01T18:43:47.527Z,8.59
2022-11-01T18:46:56.940Z,8.48
2022-11-01T18:49:59.185Z,8.40
2022-11-01T18:53:20.795Z,8.42
2022-11-01T18:56:22.791Z,8.32
2022-11-01T18:59:29.246Z,8.22
2022-11-01T19:02:31.524Z,8.06
2022-11-01T19:05:33.063Z,7.98
2022-11-01T19:08:35.118Z,7.94
2022-11-01T19:11:36.487Z,7.95
2022-11-01T19:14:37.835Z,7.93
2022-11-01T19:17:40.456Z,7.86
2022-11-01T19:20:52.926Z,7.77
2022-11-01T19:23:54.722Z,7.72
2022-11-01T19:26:56.297Z,7.65
2022-11-01T19:29:58.141Z,7.66
2022-11-01T19:33:17.286Z,7.64
2022-11-01T19:36:18.912Z,7.62
2022-11-01T19:39:20.256Z,7.61
2022-11-01T19:42:28.664Z,7.59
2022-11-01T19:45:30.995Z,7.57
2022-11-01T19:48:32.351Z,7.59
2022-11-01T19:51:33.674Z,7.51
2022-11-01T19:54:35.525Z,7.49
2022-11-01T19:57:39.609Z,7.43
2022-11-01T20:00:43.682Z,7.44
2022-11-01T20:03:52.322Z,7.30
2022-11-01T20:06:57.843Z,7.23
2022-11-01T20:09:59.232Z,7.26
2022-11-01T20:13:01.395Z,7.37
2022-11-01T20:16:03.008Z,7.25
2022-11-01T20:19:04.379Z,7.25
2022-11-01T20:22:05.752Z,7.14
2022-11-01T20:25:07.234Z,7.09
2022-11-01T20:28:08.867Z,7.13
2022-11-01T20:31:10.256Z,7.16
2022-11-01T20:34:11.627Z,7.03
2022-11-01T20:37:29.121Z,7.11
2022-11-01T20:40:30.683Z,7.08
2022-11-01T20:43:32.103Z,7.02
2022-11-01T20:46:33.458Z,6.97
2022-11-01T20:49:35.795Z,6.94
2022-11-01T20:52:40.501Z,6.88
2022-11-01T20:55:42.744Z,6.81
2022-11-01T20:58:44.128Z,6.71
2022-11-01T21:01:45.703Z,6.63
2022-11-01T21:04:47.546Z,6.64
2022-11-01T21:07:49.024Z,6.58
2022-11-01T21:10:57.507Z,6.61
2022-11-01T21:13:59.195Z,6.52
2022-11-01T21:17:01.563Z,6.55
2022-11-01T21:20:02.895Z,6.45
2022-11-01T21:23:22.953Z,6.43
2022-11-01T21:26:33.794Z,6.36
2022-11-01T21:29:35.243Z,6.42
2022-11-01T21:32:39.831Z,6.31
2022-11-01T21:35:45.403Z,6.39
2022-11-01T21:38:47.623Z,6.34
2022-11-01T21:41:49.744Z,6.42
2022-11-01T21:44:52.014Z,6.37
2022-11-01T21:47:53.430Z,6.40
2022-11-01T21:50:54.758Z,6.34
2022-11-01T21:54:00.092Z,6.24
2022-11-01T21:57:05.503Z,6.18
2022-11-01T22:00:07.063Z,6.20
2022-11-01T22:03:08.392Z,6.18
2022-11-01T22:06:09.952Z,6.12
2022-11-01T22:09:11.422Z,6.17
2022-11-01T22:12:12.782Z,6.17
2022-11-01T22:15:14.184Z,5.99
2022-11-01T22:18:16.666Z,5.88
2022-11-01T22:21:20.174Z,5.92
2022-11-01T22:24:21.563Z,5.92
2022-11-01T22:27:22.931Z,5.92
2022-11-01T22:30:24.294Z,5.91
2022-11-01T22:33:26.682Z,5.93
2022-11-01T22:36:31.544Z,5.78
2022-11-01T22:39:34.628Z,5.81
2022-11-01T22:42:35.956Z,5.87
2022-11-01T22:45:37.758Z,5.73
2022-11-01T22:48:39.132Z,5.72
2022-11-01T22:51:40.832Z,5.69
2022-11-01T22:54:42.375Z,5.75
2022-11-01T22:57:47.847Z,5.71
2022-11-01T23:00:49.180Z,5.60
2022-11-01T23:03:51.345Z,5.53
2022-11-01T23:06:52.697Z,5.51
2022-11-01T23:09:55.287Z,5.48
2022-11-01T23:13:26.109Z,5.41
2022-11-01T23:16:27.976Z,5.41
2022-11-01T23:19:29.457Z,5.37
2022-11-01T23:22:34.321Z,5.39
2022-11-01T23:25:35.672Z,5.37
2022-11-01T23:28:39.440Z,5.28
2022-11-01T23:31:40.803Z,5.32
2022-11-01T23:34:42.202Z,5.42
2022-11-01T23:37:43.603Z,5.39
2022-11-01T23:40:45.077Z,5.41
2022-11-01T23:43:46.422Z,5.39
2022-11-01T23:46:47.785Z,5.43
2022-11-01T23:49:51.466Z,5.32
2022-11-01T23:52:53.853Z,5.28
2022-11-01T23:55:55.195Z,5.36
2022-11-01T23:58:59.418Z,5.31
